Time;durP1;ratioP1;P1;durP2;ratioP2;P2;SDS_P1;SDS_P2;PMS_P1;PMS_P2;Temp;Humidity;BMP_temperature;BMP_pressure;BME280_temperature;BME280_humidity;BME280_pressure;Samples;Min_cycle;Max_cycle;Signal;HPM_P1;HPM_P2
2021/09/01 00:00:02;;;;;;;7.00;6.10;;;16.00;99.90;;;;;;5011731;28;20398;-84
2021/09/01 00:02:28;;;;;;;7.13;6.43;;;15.90;99.90;;;;;;5012227;28;20033;-85
2021/09/01 00:04:53;;;;;;;8.35;6.70;;;15.80;99.90;;;;;;5012484;28;20036;-84
2021/09/01 00:07:19;;;;;;;8.88;6.65;;;15.90;99.90;;;;;;5012197;28;20030;-85
2021/09/01 00:09:45;;;;;;;7.03;6.40;;;15.80;99.90;;;;;;5012444;28;20023;-84
2021/09/01 00:12:11;;;;;;;7.97;7.18;;;15.90;99.90;;;;;;5011736;28;20092;-84
2021/09/01 00:14:36;;;;;;;7.07;6.38;;;15.80;99.90;;;;;;5011963;28;20076;-84
2021/09/01 00:17:02;;;;;;;7.43;6.47;;;15.80;99.90;;;;;;5012013;28;20571;-84
2021/09/01 00:19:28;;;;;;;6.85;6.18;;;15.80;99.90;;;;;;5012056;28;20501;-85
2021/09/01 00:21:54;;;;;;;8.57;6.53;;;15.80;99.90;;;;;;5011819;28;20391;-85
2021/09/01 00:24:20;;;;;;;7.25;6.55;;;15.70;99.90;;;;;;5012826;28;20033;-84
2021/09/01 00:26:46;;;;;;;7.32;6.68;;;15.70;99.90;;;;;;5010957;28;20029;-85
2021/09/01 00:29:12;;;;;;;8.52;6.32;;;15.60;99.90;;;;;;5011863;28;20119;-84
2021/09/01 00:31:37;;;;;;;7.55;6.70;;;15.70;99.90;;;;;;5013124;28;20037;-84
2021/09/01 00:34:03;;;;;;;7.35;6.60;;;15.60;99.90;;;;;;5011593;28;20033;-85
2021/09/01 00:36:29;;;;;;;7.38;6.70;;;15.50;99.90;;;;;;5012698;28;20079;-84
2021/09/01 00:38:55;;;;;;;7.65;6.55;;;15.50;99.90;;;;;;5012142;28;20034;-84
2021/09/01 00:41:22;;;;;;;7.38;6.68;;;15.50;99.90;;;;;;5011131;28;20525;-84
2021/09/01 00:43:49;;;;;;;7.60;6.90;;;15.40;99.90;;;;;;5011756;28;20133;-84
2021/09/01 00:46:16;;;;;;;7.10;6.40;;;15.30;99.90;;;;;;5011922;28;20030;-84
2021/09/01 00:48:42;;;;;;;7.18;6.47;;;15.30;99.90;;;;;;5011874;28;20157;-85
2021/09/01 00:51:08;;;;;;;7.43;6.72;;;15.30;99.90;;;;;;5012136;28;20037;-85
2021/09/01 00:53:37;;;;;;;6.65;6.05;;;15.20;99.90;;;;;;5011248;28;20034;-84
2021/09/01 00:56:04;;;;;;;7.28;6.57;;;15.30;99.90;;;;;;5011048;28;20050;-85
2021/09/01 00:58:36;;;;;;;6.97;6.28;;;15.40;99.90;;;;;;5011916;28;20030;-85
2021/09/01 01:01:15;;;;;;;7.97;6.75;;;15.30;99.90;;;;;;5011267;28;20041;-84
2021/09/01 01:03:52;;;;;;;7.47;6.57;;;15.20;99.90;;;;;;5008205;28;20064;-85
2021/09/01 01:06:22;;;;;;;7.20;6.60;;;15.30;99.90;;;;;;5012390;28;20056;-85
2021/09/01 01:08:52;;;;;;;7.32;6.63;;;15.20;99.90;;;;;;5010618;28;20065;-85
2021/09/01 01:11:18;;;;;;;10.27;6.63;;;15.20;99.90;;;;;;5010458;28;20137;-85
2021/09/01 01:13:45;;;;;;;7.05;6.35;;;15.20;99.90;;;;;;5010930;28;20057;-85
2021/09/01 01:16:13;;;;;;;9.20;7.47;;;15.20;99.90;;;;;;5011513;28;20581;-85
2021/09/01 01:18:40;;;;;;;7.22;6.30;;;15.00;99.90;;;;;;5011437;28;20033;-85
2021/09/01 01:21:06;;;;;;;7.68;6.78;;;15.00;99.90;;;;;;5011411;28;20548;-85
2021/09/01 01:23:31;;;;;;;7.32;6.60;;;15.10;99.90;;;;;;5010850;28;20029;-84
2021/09/01 01:25:57;;;;;;;7.35;6.65;;;14.90;99.90;;;;;;5011400;28;20520;-84
2021/09/01 01:28:23;;;;;;;7.30;6.60;;;14.80;99.90;;;;;;5011015;28;20026;-84
2021/09/01 01:30:48;;;;;;;7.78;6.97;;;14.90;99.90;;;;;;5011101;28;20026;-85
2021/09/01 01:33:14;;;;;;;8.80;7.10;;;14.90;99.90;;;;;;5011475;28;20026;-84
2021/09/01 01:35:43;;;;;;;7.32;6.63;;;14.80;99.90;;;;;;5011629;28;20038;-84
2021/09/01 01:38:11;;;;;;;7.53;6.70;;;14.80;99.90;;;;;;5010541;28;20026;-85
2021/09/01 01:40:38;;;;;;;8.45;6.70;;;14.90;99.90;;;;;;5010693;28;20037;-84
2021/09/01 01:43:04;;;;;;;7.45;6.65;;;14.70;99.90;;;;;;5011065;28;20573;-84
2021/09/01 01:45:49;;;;;;;8.68;6.60;;;14.80;99.90;;;;;;5012666;28;20025;-85
2021/09/01 01:48:16;;;;;;;7.78;7.05;;;14.70;99.90;;;;;;5011207;28;20038;-84
2021/09/01 01:50:43;;;;;;;8.55;7.10;;;14.70;99.90;;;;;;5010991;28;20030;-84
2021/09/01 01:53:09;;;;;;;6.88;6.28;;;14.80;99.90;;;;;;5010626;28;20026;-85
2021/09/01 01:55:35;;;;;;;7.07;6.40;;;14.80;99.90;;;;;;5011066;28;20359;-84
2021/09/01 01:58:01;;;;;;;7.15;6.45;;;14.70;99.90;;;;;;5010841;28;20053;-84
2021/09/01 02:00:27;;;;;;;7.35;6.57;;;14.80;99.90;;;;;;5011105;28;20478;-85
2021/09/01 02:02:52;;;;;;;7.60;6.80;;;14.70;99.90;;;;;;5011033;28;20030;-85
2021/09/01 02:05:18;;;;;;;7.10;6.40;;;14.60;99.90;;;;;;5010910;28;20490;-85
2021/09/01 02:07:44;;;;;;;8.75;6.85;;;14.50;99.90;;;;;;5010225;28;20453;-84
2021/09/01 02:10:11;;;;;;;6.70;6.10;;;14.50;99.90;;;;;;5010631;28;20486;-84
2021/09/01 02:12:38;;;;;;;7.47;6.57;;;14.60;99.90;;;;;;5011108;28;20054;-84
2021/09/01 02:15:05;;;;;;;7.82;6.63;;;14.60;99.90;;;;;;5010986;28;20034;-85
2021/09/01 02:17:31;;;;;;;7.57;6.53;;;14.50;99.90;;;;;;5010897;28;20029;-84
2021/09/01 02:19:58;;;;;;;8.30;6.57;;;14.50;99.90;;;;;;5010499;28;20038;-84
2021/09/01 02:22:24;;;;;;;8.27;6.45;;;14.60;99.90;;;;;;5013952;28;20548;-84
2021/09/01 02:24:49;;;;;;;7.43;6.72;;;14.60;99.90;;;;;;5014148;28;20018;-84
2021/09/01 02:27:15;;;;;;;7.85;6.75;;;14.40;99.90;;;;;;5014372;28;20033;-84
2021/09/01 02:29:41;;;;;;;8.10;6.85;;;14.40;99.90;;;;;;5014381;28;20041;-84
2021/09/01 02:32:08;;;;;;;7.68;6.55;;;14.30;99.90;;;;;;5014203;28;20501;-85
2021/09/01 02:34:34;;;;;;;7.00;6.30;;;14.40;99.90;;;;;;5013958;28;20025;-84
2021/09/01 02:36:59;;;;;;;7.32;6.55;;;14.40;99.90;;;;;;5013377;28;20095;-84
2021/09/01 02:39:25;;;;;;;7.68;6.50;;;14.40;99.90;;;;;;5014090;28;20041;-85
2021/09/01 02:41:51;;;;;;;7.85;7.05;;;14.30;99.90;;;;;;5013591;28;20453;-84
2021/09/01 02:44:17;;;;;;;7.55;6.85;;;14.20;99.90;;;;;;5014590;28;20033;-85
2021/09/01 02:46:42;;;;;;;7.53;6.80;;;14.20;99.90;;;;;;5013459;28;20060;-85
2021/09/01 02:49:08;;;;;;;7.43;6.72;;;14.30;99.90;;;;;;5013732;28;20451;-84
2021/09/01 02:51:34;;;;;;;7.40;6.70;;;14.30;99.90;;;;;;5013757;28;20121;-84
2021/09/01 02:54:00;;;;;;;7.75;6.95;;;14.20;99.90;;;;;;5013579;28;20036;-84
2021/09/01 02:56:25;;;;;;;7.72;6.68;;;14.10;99.90;;;;;;5014102;28;20490;-84
2021/09/01 02:58:51;;;;;;;7.93;7.13;;;14.10;99.90;;;;;;5013263;28;20073;-84
2021/09/01 03:01:16;;;;;;;7.20;6.50;;;14.10;99.90;;;;;;5013101;28;20538;-85
2021/09/01 03:03:42;;;;;;;7.65;6.88;;;14.10;99.90;;;;;;5014072;28;20036;-85
2021/09/01 03:06:08;;;;;;;7.18;6.47;;;14.10;99.90;;;;;;5013536;28;20410;-84
2021/09/01 03:08:33;;;;;;;6.85;6.22;;;14.10;99.90;;;;;;5013444;28;20029;-84
2021/09/01 03:10:59;;;;;;;6.97;6.38;;;14.10;99.90;;;;;;5012943;28;20108;-84
2021/09/01 03:13:25;;;;;;;7.20;6.50;;;14.00;99.90;;;;;;5013415;28;20053;-84
2021/09/01 03:15:50;;;;;;;7.00;6.32;;;14.20;99.90;;;;;;5013206;28;20444;-84
2021/09/01 03:18:16;;;;;;;9.65;7.20;;;14.10;99.90;;;;;;5013981;28;20030;-84
2021/09/01 03:20:41;;;;;;;8.02;7.00;;;14.00;99.90;;;;;;5012816;28;20516;-84
2021/09/01 03:23:07;;;;;;;7.43;6.57;;;14.00;99.90;;;;;;5012652;28;20034;-84
2021/09/01 03:25:33;;;;;;;7.97;7.28;;;13.80;99.90;;;;;;5012770;28;20057;-84
2021/09/01 03:27:59;;;;;;;7.60;6.90;;;13.80;99.90;;;;;;5013439;28;20038;-85
2021/09/01 03:30:27;;;;;;;7.85;6.72;;;13.80;99.90;;;;;;5013251;28;20018;-84
2021/09/01 03:32:53;;;;;;;8.23;7.03;;;13.90;99.90;;;;;;5012893;28;20033;-84
2021/09/01 03:35:19;;;;;;;8.63;7.20;;;14.00;99.90;;;;;;5012607;28;20022;-84
2021/09/01 03:37:44;;;;;;;7.57;6.88;;;14.00;99.90;;;;;;5012354;28;20501;-84
2021/09/01 03:40:10;;;;;;;7.30;6.60;;;13.90;99.90;;;;;;5012824;28;20054;-85
2021/09/01 03:42:36;;;;;;;7.57;6.82;;;14.00;99.90;;;;;;5013344;28;20120;-84
2021/09/01 03:45:03;;;;;;;8.98;6.80;;;14.00;99.90;;;;;;5012440;28;20074;-84
2021/09/01 03:47:28;;;;;;;7.30;6.60;;;13.90;99.90;;;;;;5012836;28;20030;-84
2021/09/01 03:49:54;;;;;;;8.20;7.40;;;13.80;99.90;;;;;;5011697;28;20026;-84
2021/09/01 03:52:19;;;;;;;8.38;6.97;;;13.80;99.90;;;;;;5012643;28;20033;-84
2021/09/01 03:54:45;;;;;;;7.43;6.72;;;13.60;99.90;;;;;;5012961;28;20030;-84
2021/09/01 03:57:10;;;;;;;8.40;7.00;;;13.60;99.90;;;;;;5012518;28;20034;-84
2021/09/01 03:59:36;;;;;;;7.82;6.75;;;13.50;99.90;;;;;;5012912;28;20038;-84
2021/09/01 04:02:02;;;;;;;7.50;6.78;;;13.60;99.90;;;;;;5011988;28;20060;-84
2021/09/01 04:04:27;;;;;;;8.35;6.88;;;13.60;99.90;;;;;;5012010;28;20109;-84
2021/09/01 04:06:53;;;;;;;8.30;7.30;;;13.70;99.90;;;;;;5012051;28;20093;-84
2021/09/01 04:09:19;;;;;;;8.25;7.35;;;13.70;99.90;;;;;;5010344;28;20108;-84
2021/09/01 04:11:44;;;;;;;9.63;7.07;;;13.70;99.90;;;;;;5012294;28;20054;-84
2021/09/01 04:14:10;;;;;;;6.68;6.07;;;13.70;99.90;;;;;;5011895;28;20034;-84
2021/09/01 04:16:35;;;;;;;10.35;6.72;;;13.60;99.90;;;;;;5012476;28;20026;-84
2021/09/01 04:19:01;;;;;;;8.70;7.32;;;13.70;99.90;;;;;;5011621;28;20192;-84
2021/09/01 04:21:27;;;;;;;7.35;6.65;;;13.60;99.90;;;;;;5012386;28;20034;-83
2021/09/01 04:23:52;;;;;;;8.85;7.43;;;13.60;99.90;;;;;;5011724;28;20109;-84
2021/09/01 04:26:18;;;;;;;8.82;6.88;;;13.60;99.90;;;;;;5012254;28;20030;-84
2021/09/01 04:28:44;;;;;;;7.43;6.72;;;13.70;99.90;;;;;;5012075;28;20123;-84
2021/09/01 04:31:09;;;;;;;7.82;6.93;;;13.70;99.90;;;;;;5011784;28;20025;-85
2021/09/01 04:33:35;;;;;;;7.85;7.05;;;13.60;99.90;;;;;;5007961;28;20030;-83
2021/09/01 04:36:01;;;;;;;8.13;7.30;;;13.40;99.90;;;;;;5011351;28;20037;-84
2021/09/01 04:38:26;;;;;;;7.93;7.20;;;13.40;99.90;;;;;;5011994;28;20032;-84
2021/09/01 04:40:52;;;;;;;9.63;7.60;;;13.40;99.90;;;;;;5011279;28;20029;-84
2021/09/01 04:43:18;;;;;;;8.55;6.53;;;13.40;99.90;;;;;;5011292;28;20025;-84
2021/09/01 04:45:44;;;;;;;8.45;6.82;;;13.40;99.90;;;;;;5011751;28;20025;-84
2021/09/01 04:48:09;;;;;;;8.30;7.35;;;13.40;99.90;;;;;;5011311;28;20038;-84
2021/09/01 04:50:35;;;;;;;7.72;6.93;;;13.30;99.90;;;;;;5011532;28;20429;-84
2021/09/01 04:53:01;;;;;;;7.78;7.05;;;13.30;99.90;;;;;;5011321;28;20087;-84
2021/09/01 04:55:27;;;;;;;8.75;7.00;;;13.40;99.90;;;;;;5011715;28;20413;-84
2021/09/01 04:57:52;;;;;;;8.38;7.45;;;13.40;99.90;;;;;;5011851;28;20034;-85
2021/09/01 05:00:18;;;;;;;8.80;7.55;;;13.50;99.90;;;;;;5011674;28;20115;-84
2021/09/01 05:02:44;;;;;;;11.63;7.70;;;13.40;99.90;;;;;;5011443;28;20056;-84
2021/09/01 05:05:10;;;;;;;7.57;6.70;;;13.30;99.90;;;;;;5011455;28;20054;-85
2021/09/01 05:07:35;;;;;;;7.65;6.85;;;13.40;99.90;;;;;;5011587;28;20116;-84
2021/09/01 05:10:01;;;;;;;8.10;7.30;;;13.40;99.90;;;;;;5010914;28;20446;-84
2021/09/01 05:12:27;;;;;;;9.75;7.60;;;13.40;99.90;;;;;;5011971;28;20058;-84
2021/09/01 05:14:57;;;;;;;8.38;7.00;;;13.50;99.90;;;;;;5011409;28;20490;-84
2021/09/01 05:17:23;;;;;;;8.48;7.65;;;13.60;99.90;;;;;;5011232;28;20316;-84
2021/09/01 05:19:49;;;;;;;8.23;7.05;;;13.50;99.90;;;;;;5010761;28;20406;-85
2021/09/01 05:22:18;;;;;;;7.63;6.90;;;13.50;99.90;;;;;;5011566;28;20038;-84
2021/09/01 05:25:02;;;;;;;8.48;7.63;;;13.50;99.90;;;;;;5011127;28;20084;-84
2021/09/01 05:27:31;;;;;;;8.48;7.50;;;13.50;99.90;;;;;;5012147;28;20058;-85
2021/09/01 05:29:58;;;;;;;8.40;7.55;;;13.50;99.90;;;;;;5011734;28;20375;-85
2021/09/01 05:32:26;;;;;;;8.73;7.63;;;13.60;99.90;;;;;;5010805;28;20033;-85
2021/09/01 05:34:55;;;;;;;8.65;7.85;;;13.60;99.90;;;;;;5011087;28;20042;-84
2021/09/01 05:37:22;;;;;;;9.98;7.63;;;13.60;99.90;;;;;;5011348;28;20033;-85
2021/09/01 05:39:49;;;;;;;10.93;7.70;;;13.70;99.90;;;;;;5011780;28;20425;-85
2021/09/01 05:42:18;;;;;;;9.27;8.20;;;13.60;99.90;;;;;;5011648;28;20482;-84
2021/09/01 05:44:44;;;;;;;8.32;7.40;;;13.60;99.90;;;;;;5010580;28;20041;-85
2021/09/01 05:47:11;;;;;;;8.25;7.30;;;13.70;99.90;;;;;;5010905;28;20057;-84
2021/09/01 05:49:38;;;;;;;8.73;7.28;;;13.80;99.90;;;;;;5010852;28;20500;-85
2021/09/01 05:52:06;;;;;;;10.38;7.50;;;13.80;99.90;;;;;;5010887;28;20021;-85
2021/09/01 05:54:33;;;;;;;11.02;7.82;;;13.70;99.90;;;;;;5011644;28;20516;-85
2021/09/01 05:57:04;;;;;;;9.55;7.70;;;13.70;99.90;;;;;;5013927;28;20018;-85
2021/09/01 05:59:30;;;;;;;9.30;8.23;;;13.70;99.90;;;;;;5013927;28;20079;-84
2021/09/01 06:02:01;;;;;;;12.00;8.20;;;13.80;99.90;;;;;;5014355;28;20034;-85
2021/09/01 06:04:30;;;;;;;9.10;8.20;;;13.90;99.90;;;;;;5014824;28;20473;-84
2021/09/01 06:06:59;;;;;;;10.25;7.47;;;13.90;99.90;;;;;;5014392;28;20025;-85
2021/09/01 06:09:28;;;;;;;8.98;7.78;;;13.90;99.90;;;;;;5014835;28;20038;-85
2021/09/01 06:11:55;;;;;;;12.15;8.35;;;14.00;99.90;;;;;;5014407;28;20070;-84
2021/09/01 06:14:21;;;;;;;8.63;7.47;;;14.00;99.90;;;;;;5013878;28;20037;-84
2021/09/01 06:16:47;;;;;;;12.35;7.45;;;14.10;99.90;;;;;;5013766;28;20076;-85
2021/09/01 06:19:13;;;;;;;10.00;8.30;;;14.20;99.90;;;;;;5013047;28;20089;-85
2021/09/01 06:21:39;;;;;;;9.88;8.35;;;14.30;99.90;;;;;;5014969;28;20034;-84
2021/09/01 06:24:04;;;;;;;10.10;7.60;;;14.40;99.90;;;;;;5014044;28;20026;-85
2021/09/01 06:26:30;;;;;;;8.85;7.47;;;14.50;99.90;;;;;;5014174;28;20032;-85
2021/09/01 06:28:55;;;;;;;10.40;8.30;;;14.70;99.90;;;;;;5013570;28;20081;-85
2021/09/01 06:31:21;;;;;;;12.13;8.73;;;14.70;99.90;;;;;;5014621;28;20041;-85
2021/09/01 06:33:47;;;;;;;10.27;8.50;;;14.90;99.90;;;;;;5013986;28;20060;-84
2021/09/01 06:36:13;;;;;;;14.05;9.55;;;15.00;99.90;;;;;;5014913;28;20053;-84
2021/09/01 06:38:38;;;;;;;10.82;8.60;;;14.90;99.90;;;;;;5013446;28;20119;-85
2021/09/01 06:41:04;;;;;;;9.73;8.73;;;14.90;99.90;;;;;;5013269;28;20042;-85
2021/09/01 06:43:29;;;;;;;12.65;9.52;;;15.10;99.90;;;;;;5014109;28;20025;-85
2021/09/01 06:45:55;;;;;;;11.90;9.77;;;15.00;99.90;;;;;;5013388;28;20486;-85
2021/09/01 06:48:22;;;;;;;12.50;10.13;;;15.10;99.90;;;;;;5014565;28;20441;-84
2021/09/01 06:50:47;;;;;;;13.30;10.82;;;15.20;99.90;;;;;;5013326;28;20088;-85
2021/09/01 06:53:13;;;;;;;11.57;9.85;;;15.30;99.90;;;;;;5013348;28;20030;-84
2021/09/01 06:55:39;;;;;;;14.88;10.85;;;15.20;99.90;;;;;;5013429;28;20104;-84
2021/09/01 06:58:15;;;;;;;14.38;11.18;;;15.10;99.90;;;;;;5013508;28;20087;-85
2021/09/01 07:00:41;;;;;;;15.60;11.73;;;15.20;99.90;;;;;;5008715;28;20084;-84
2021/09/01 07:03:07;;;;;;;13.75;11.80;;;15.30;99.90;;;;;;5014030;28;20113;-85
2021/09/01 07:05:32;;;;;;;16.85;11.13;;;15.40;99.90;;;;;;5013133;28;20559;-85
2021/09/01 07:07:58;;;;;;;15.07;11.40;;;15.60;99.90;;;;;;5013104;28;20045;-84
2021/09/01 07:10:23;;;;;;;13.65;10.32;;;15.60;99.90;;;;;;5013297;28;20510;-85
2021/09/01 07:12:49;;;;;;;12.80;11.27;;;15.70;99.90;;;;;;5012785;28;20058;-85
2021/09/01 07:15:15;;;;;;;14.68;11.45;;;16.00;99.90;;;;;;5014077;28;20486;-84
2021/09/01 07:17:42;;;;;;;13.98;11.30;;;16.10;99.90;;;;;;5013150;28;20148;-85
2021/09/01 07:20:09;;;;;;;13.00;11.45;;;16.10;99.90;;;;;;5013745;28;20042;-85
2021/09/01 07:22:35;;;;;;;12.80;11.50;;;16.20;99.90;;;;;;5013181;28;20018;-85
2021/09/01 07:25:02;;;;;;;12.02;10.82;;;16.00;99.90;;;;;;5013845;28;20030;-85
2021/09/01 07:27:28;;;;;;;12.35;10.23;;;16.00;99.90;;;;;;5011749;28;20117;-85
2021/09/01 07:29:54;;;;;;;14.70;11.27;;;16.10;99.90;;;;;;5012645;28;20393;-85
2021/09/01 07:32:19;;;;;;;12.98;11.18;;;16.20;99.90;;;;;;5012932;28;20044;-85
2021/09/01 07:34:45;;;;;;;12.43;11.13;;;16.20;99.90;;;;;;5012970;28;20026;-85
2021/09/01 07:37:10;;;;;;;12.63;11.32;;;16.40;99.90;;;;;;5012621;28;20576;-85
2021/09/01 07:39:36;;;;;;;14.57;11.57;;;16.50;99.90;;;;;;5013663;28;20037;-84
2021/09/01 07:42:02;;;;;;;14.27;11.73;;;16.50;99.90;;;;;;5012607;28;20076;-85
2021/09/01 07:44:28;;;;;;;11.57;10.38;;;16.50;99.90;;;;;;5011493;28;20394;-85
2021/09/01 07:46:53;;;;;;;11.75;10.55;;;16.60;99.90;;;;;;5012441;28;20026;-85
2021/09/01 07:49:19;;;;;;;12.63;10.48;;;16.70;99.90;;;;;;5012912;28;20049;-85
2021/09/01 07:51:44;;;;;;;16.67;14.55;;;16.90;99.90;;;;;;5013256;28;20053;-84
2021/09/01 07:54:10;;;;;;;14.30;12.38;;;16.90;99.90;;;;;;5012841;28;20025;-85
2021/09/01 07:56:36;;;;;;;13.48;11.25;;;16.90;99.90;;;;;;5011827;28;20021;-85
2021/09/01 07:59:02;;;;;;;12.20;10.90;;;16.90;99.90;;;;;;5012749;28;20030;-85
2021/09/01 08:01:28;;;;;;;14.55;11.27;;;16.90;99.90;;;;;;5012237;28;20045;-85
2021/09/01 08:03:53;;;;;;;12.55;11.25;;;16.80;99.90;;;;;;5012353;28;20113;-85
2021/09/01 08:06:19;;;;;;;13.80;12.15;;;16.80;99.90;;;;;;5012733;28;20490;-85
2021/09/01 08:08:44;;;;;;;16.10;11.93;;;16.80;99.90;;;;;;5012393;28;20041;-85
2021/09/01 08:11:10;;;;;;;16.33;12.43;;;16.80;99.90;;;;;;5012312;28;20042;-85
2021/09/01 08:13:36;;;;;;;15.93;11.13;;;16.80;99.90;;;;;;5011857;28;20022;-85
2021/09/01 08:16:01;;;;;;;15.38;12.25;;;17.10;99.90;;;;;;5012846;28;20172;-85
2021/09/01 08:18:27;;;;;;;14.82;11.65;;;17.10;99.90;;;;;;5012154;28;20071;-85
2021/09/01 08:20:53;;;;;;;13.15;10.80;;;17.40;99.90;;;;;;5011976;28;20202;-85
2021/09/01 08:23:18;;;;;;;14.85;11.75;;;17.70;99.90;;;;;;5012340;28;20355;-85
2021/09/01 08:25:44;;;;;;;12.02;10.73;;;17.70;99.90;;;;;;5011940;28;20066;-85
2021/09/01 08:28:09;;;;;;;16.63;11.18;;;17.70;99.90;;;;;;5011751;28;20064;-85
2021/09/01 08:30:35;;;;;;;15.40;11.45;;;17.60;99.90;;;;;;5012338;28;20382;-84
2021/09/01 08:33:01;;;;;;;12.00;9.90;;;17.70;99.90;;;;;;5012183;28;20041;-85
2021/09/01 08:35:26;;;;;;;12.38;10.18;;;18.00;99.90;;;;;;5011566;28;20030;-85
2021/09/01 08:37:52;;;;;;;11.68;10.07;;;18.40;99.90;;;;;;5011542;28;20508;-85
2021/09/01 08:40:18;;;;;;;10.95;9.57;;;18.50;99.90;;;;;;5011791;28;20498;-85
2021/09/01 08:42:46;;;;;;;15.23;10.10;;;18.50;99.90;;;;;;5011653;28;20033;-85
2021/09/01 08:45:12;;;;;;;11.05;9.43;;;18.50;99.90;;;;;;5011600;28;20498;-84
2021/09/01 08:47:39;;;;;;;10.70;9.63;;;18.80;99.90;;;;;;5011508;28;20310;-85
2021/09/01 08:50:06;;;;;;;11.13;9.27;;;18.80;99.90;;;;;;5010204;28;20393;-84
2021/09/01 08:52:34;;;;;;;11.50;10.07;;;18.80;99.90;;;;;;5011989;28;20136;-84
2021/09/01 08:55:00;;;;;;;12.15;9.55;;;18.60;99.90;;;;;;5011318;28;20513;-85
2021/09/01 08:57:25;;;;;;;11.38;9.77;;;18.60;99.90;;;;;;5011747;28;20034;-85
2021/09/01 08:59:51;;;;;;;11.82;10.32;;;19.10;99.90;;;;;;5011950;28;20037;-85
2021/09/01 09:02:27;;;;;;;11.52;9.85;;;19.20;99.90;;;;;;5011340;28;20029;-85
2021/09/01 09:04:53;;;;;;;10.50;9.20;;;19.30;99.90;;;;;;5011213;28;20034;-85
2021/09/01 09:07:18;;;;;;;10.27;9.27;;;19.30;99.90;;;;;;5011153;28;20040;-85
2021/09/01 09:09:44;;;;;;;11.60;10.13;;;19.40;99.90;;;;;;5012782;28;20022;-86
2021/09/01 09:12:10;;;;;;;13.60;10.15;;;19.30;99.90;;;;;;5011584;28;20137;-85
2021/09/01 09:14:39;;;;;;;12.32;10.40;;;19.20;99.90;;;;;;5011126;28;20446;-85
2021/09/01 09:17:12;;;;;;;11.30;10.10;;;19.30;99.90;;;;;;5012888;28;20022;-85
2021/09/01 09:19:44;;;;;;;12.25;10.77;;;19.60;99.90;;;;;;5011435;28;20025;-85
2021/09/01 09:22:11;;;;;;;13.40;10.00;;;19.70;99.90;;;;;;4995730;28;20095;-86
2021/09/01 09:24:37;;;;;;;9.93;8.80;;;19.60;99.90;;;;;;5011800;28;20378;-85
2021/09/01 09:27:06;;;;;;;12.05;10.82;;;19.70;99.90;;;;;;5011207;28;20088;-85
2021/09/01 09:29:32;;;;;;;12.15;10.10;;;19.70;99.90;;;;;;5011517;28;20037;-85
2021/09/01 09:32:06;;;;;;;12.18;10.00;;;19.60;99.90;;;;;;5013954;28;20111;-85
2021/09/01 09:34:42;;;;;;;12.00;9.88;;;19.60;99.90;;;;;;5015415;28;20037;-85
2021/09/01 09:37:10;;;;;;;11.77;9.98;;;19.80;99.90;;;;;;4997920;28;20026;-85
2021/09/01 09:39:42;;;;;;;10.57;8.90;;;19.80;99.90;;;;;;5011647;28;20018;-85
2021/09/01 09:42:10;;;;;;;10.05;9.05;;;20.30;99.90;;;;;;5015065;28;20038;-85
2021/09/01 09:44:35;;;;;;;9.25;8.05;;;20.40;99.90;;;;;;5014952;28;20037;-85
2021/09/01 09:47:01;;;;;;;9.48;8.57;;;20.70;99.90;;;;;;5013509;28;20683;-85
2021/09/01 09:49:32;;;;;;;7.03;6.32;;;20.70;99.90;;;;;;5014847;28;20053;-85
2021/09/01 09:51:58;;;;;;;7.72;6.68;;;20.80;99.90;;;;;;5014744;28;20022;-86
2021/09/01 09:54:26;;;;;;;7.80;6.47;;;21.30;99.90;;;;;;5015940;28;20022;-85
2021/09/01 09:57:06;;;;;;;7.22;5.97;;;21.60;99.90;;;;;;5015059;28;20084;-85
2021/09/01 09:59:33;;;;;;;6.80;6.10;;;22.50;99.90;;;;;;5014502;28;20088;-85
2021/09/01 10:01:59;;;;;;;9.35;6.15;;;25.10;99.90;;;;;;5014867;28;20038;-85
2021/09/01 10:04:26;;;;;;;6.93;6.15;;;29.80;99.90;;;;;;5014611;28;20029;-85
2021/09/01 10:06:52;;;;;;;8.98;6.30;;;32.80;99.90;;;;;;5012819;28;20500;-85
2021/09/01 10:09:19;;;;;;;6.63;5.93;;;34.70;99.90;;;;;;5014679;28;20072;-85
2021/09/01 10:11:50;;;;;;;6.80;6.10;;;36.00;98.20;;;;;;5014131;28;20054;-85
2021/09/01 10:14:19;;;;;;;6.53;5.53;;;37.50;94.20;;;;;;5014300;28;20018;-86
2021/09/01 10:17:02;;;;;;;6.82;6.10;;;38.60;91.90;;;;;;5014745;28;20061;-86
2021/09/01 10:19:30;;;;;;;7.10;6.38;;;38.60;91.40;;;;;;5014219;28;20022;-86
2021/09/01 10:22:00;;;;;;;6.25;5.65;;;38.80;90.30;;;;;;5013735;28;20038;-86
2021/09/01 10:24:34;;;;;;;5.63;5.03;;;39.10;86.90;;;;;;5014915;28;20018;-86
2021/09/01 10:27:24;;;;;;;6.47;5.75;;;39.60;84.60;;;;;;5014389;28;20037;-86
2021/09/01 10:29:58;;;;;;;5.90;5.38;;;39.00;85.30;;;;;;5014226;28;20061;-86
2021/09/01 10:32:46;;;;;;;6.22;5.53;;;39.50;81.20;;;;;;5014362;28;20030;-86
2021/09/01 10:35:17;;;;;;;6.68;6.00;;;39.90;77.30;;;;;;5013479;28;20054;-86
2021/09/01 10:37:54;;;;;;;5.90;4.90;;;38.50;78.60;;;;;;5013655;28;20572;-86
2021/09/01 10:40:22;;;;;;;6.57;5.85;;;39.40;76.80;;;;;;5014503;28;20057;-86
2021/09/01 10:42:49;;;;;;;6.13;5.45;;;39.80;76.40;;;;;;5013056;28;20105;-86
2021/09/01 10:45:30;;;;;;;7.90;6.43;;;40.80;71.80;;;;;;5014298;28;20459;-86
2021/09/01 10:47:58;;;;;;;7.40;6.70;;;39.60;70.10;;;;;;5015120;28;20022;-86
2021/09/01 10:50:35;;;;;;;6.68;6.05;;;37.20;82.70;;;;;;5013081;28;20054;-86
2021/09/01 10:53:10;;;;;;;7.07;6.38;;;39.90;73.80;;;;;;5014093;28;20030;-86
2021/09/01 10:55:54;;;;;;;8.50;5.50;;;39.80;73.30;;;;;;5013778;28;20041;-86
2021/09/01 10:58:33;;;;;;;5.65;5.25;;;41.30;65.70;;;;;;4999701;28;20060;-86
2021/09/01 11:01:11;;;;;;;5.82;5.32;;;41.80;60.80;;;;;;5014162;28;20100;-86
2021/09/01 11:03:47;;;;;;;8.70;6.30;;;41.30;60.50;;;;;;5009864;28;20089;-87
2021/09/01 11:06:31;;;;;;;7.03;6.28;;;41.60;58.60;;;;;;5013166;28;20116;-86
2021/09/01 11:09:07;;;;;;;7.72;5.50;;;41.30;60.60;;;;;;5013418;28;20030;-86
2021/09/01 11:11:49;;;;;;;5.78;5.28;;;41.90;58.70;;;;;;5013140;28;20456;-86
2021/09/01 11:14:36;;;;;;;6.68;5.53;;;41.20;59.40;;;;;;5013877;28;20033;-86
2021/09/01 11:17:06;;;;;;;5.80;5.25;;;42.00;57.70;;;;;;5013258;28;20041;-86
2021/09/01 11:19:31;;;;;;;5.97;5.38;;;42.40;54.10;;;;;;5013004;28;20029;-86
2021/09/01 11:22:00;;;;;;;6.80;5.40;;;42.20;54.90;;;;;;5013016;28;20088;-86
2021/09/01 11:24:26;;;;;;;8.00;4.97;;;41.20;67.00;;;;;;5013976;28;20022;-86
2021/09/01 11:26:54;;;;;;;6.15;4.80;;;42.00;53.30;;;;;;5012973;28;20516;-86
2021/09/01 11:29:28;;;;;;;5.75;5.25;;;42.10;54.10;;;;;;5013138;28;20026;-86
2021/09/01 11:31:54;;;;;;;8.68;5.70;;;41.10;54.20;;;;;;5013199;28;20397;-86
2021/09/01 11:34:19;;;;;;;5.85;5.30;;;42.80;50.90;;;;;;5013345;28;20116;-87
2021/09/01 11:36:45;;;;;;;5.90;4.93;;;42.10;51.80;;;;;;5013151;28;20101;-86
2021/09/01 11:39:11;;;;;;;5.60;4.85;;;42.90;50.20;;;;;;5013198;28;20033;-86
2021/09/01 11:41:38;;;;;;;5.78;5.28;;;42.20;51.10;;;;;;5012743;28;20045;-87
2021/09/01 11:44:06;;;;;;;5.68;5.18;;;42.50;50.70;;;;;;5013347;28;20080;-86
2021/09/01 11:46:34;;;;;;;5.70;5.20;;;42.50;49.00;;;;;;5012779;28;20560;-86
2021/09/01 11:49:07;;;;;;;7.07;4.80;;;42.00;51.10;;;;;;5012380;28;20034;-86
2021/09/01 11:51:34;;;;;;;5.78;5.18;;;41.70;52.70;;;;;;5012919;28;20025;-86
2021/09/01 11:54:00;;;;;;;5.75;5.13;;;42.90;48.80;;;;;;5012154;28;20022;-86
2021/09/01 11:56:27;;;;;;;5.32;4.82;;;42.70;46.80;;;;;;5012605;28;20026;-86
2021/09/01 11:59:07;;;;;;;5.90;5.40;;;43.30;46.90;;;;;;5012336;28;20064;-86
2021/09/01 12:01:37;;;;;;;5.90;5.07;;;42.40;48.10;;;;;;5012267;28;20066;-87
2021/09/01 12:04:04;;;;;;;4.93;4.50;;;42.20;48.50;;;;;;5012498;28;20075;-87
2021/09/01 12:06:43;;;;;;;5.10;4.60;;;43.40;44.80;;;;;;5012851;28;20068;-87
2021/09/01 12:09:14;;;;;;;5.28;4.53;;;44.10;42.20;;;;;;5012667;28;20101;-86
2021/09/01 12:11:59;;;;;;;5.10;4.70;;;45.40;39.40;;;;;;5012059;28;20053;-86
2021/09/01 12:14:31;;;;;;;7.20;5.00;;;44.00;42.80;;;;;;5010948;28;20022;-87
2021/09/01 12:17:17;;;;;;;5.93;4.75;;;42.90;45.60;;;;;;5012366;28;20116;-87
2021/09/01 12:19:49;;;;;;;6.45;4.90;;;43.80;41.80;;;;;;5012018;28;20120;-87
2021/09/01 12:22:41;;;;;;;5.57;5.13;;;44.70;37.30;;;;;;5012632;28;20097;-87
2021/09/01 12:25:36;;;;;;;5.25;4.55;;;44.40;38.80;;;;;;5012104;28;20034;-87
2021/09/01 12:28:11;;;;;;;5.18;4.78;;;43.40;42.00;;;;;;4998723;28;20931;-87
2021/09/01 12:30:48;;;;;;;5.30;4.80;;;43.10;42.50;;;;;;5008495;28;20025;-86
2021/09/01 12:33:15;;;;;;;5.25;4.32;;;43.40;41.20;;;;;;5011614;28;20041;-87
2021/09/01 12:35:41;;;;;;;5.00;4.60;;;43.10;41.30;;;;;;5011913;28;20030;-88
2021/09/01 12:38:09;;;;;;;5.07;4.65;;;43.20;43.00;;;;;;5012214;28;20057;-87
2021/09/01 12:40:37;;;;;;;5.43;4.93;;;43.70;40.50;;;;;;5012198;28;20030;-87
2021/09/01 12:43:09;;;;;;;5.20;4.80;;;43.60;40.80;;;;;;5011713;28;20042;-87
2021/09/01 12:45:37;;;;;;;6.35;5.25;;;43.20;41.50;;;;;;5012680;28;20564;-87